CFG8FP EDDF-GCLP
Flight info
| Callsign | CFG8FP |
|---|---|
| Flight time | N/A |
| Altitude | 33000 |
| Route | ANEKI2L/18 ANEKI Y163 HERBI Y164 MOPAN DCT LUTIX DCT BENOT/N0447F350 DCT NEMOS DCT NINTU DCT MEBAK DCT REPSI DCT LERGA DCT MINSO DCT NARAK DCT AGN DCT MAQAB DCT TIVLI DCT ELSAP DCT ZAR DCT KONKE DCT TERSA DCT CJN DCT VTB DCT INPAN DCT CRISA DCT HIJ DCT SVL DCT CLANA DCT KORNO UN857 TERTO |
| Aircraft | A320/M-SDE3FGHIRWY/LB1 |
Departure
| Time | N/A |
|---|---|
| Airport | Frankfurt Main Airport (EDDF) |
Arrival
| Time | 2026-04-28 19:40 |
|---|---|
| Airport | Gran Canaria Airport (GCLP) |
| Time | Latitude | Longitude | Altitude | Speed | Heading |
|---|---|---|---|---|---|
| 2026-04-28 17:39 | 37.85391 | -5.50338 | 34880 ft | 418 kts | 206° |
| 2026-04-28 17:39 | 37.82770 | -5.51939 | 34878 ft | 418 kts | 206° |
| 2026-04-28 17:40 | 37.74936 | -5.56723 | 34863 ft | 419 kts | 206° |
| 2026-04-28 17:40 | 37.69688 | -5.59921 | 34863 ft | 419 kts | 206° |
| 2026-04-28 17:41 | 37.64389 | -5.63133 | 35113 ft | 424 kts | 206° |
| 2026-04-28 17:41 | 37.61731 | -5.64743 | 35354 ft | 424 kts | 206° |
| 2026-04-28 17:41 | 37.59072 | -5.66354 | 35581 ft | 423 kts | 206° |
| 2026-04-28 17:41 | 37.56419 | -5.67963 | 35808 ft | 423 kts | 206° |
| 2026-04-28 17:42 | 37.53769 | -5.69572 | 36041 ft | 422 kts | 206° |
| 2026-04-28 17:42 | 37.52016 | -5.70635 | 36179 ft | 422 kts | 206° |
| 2026-04-28 17:42 | 37.48479 | -5.72772 | 36488 ft | 421 kts | 206° |
| 2026-04-28 17:42 | 37.45840 | -5.74360 | 36711 ft | 420 kts | 206° |
| 2026-04-28 17:43 | 37.43243 | -5.76048 | 36861 ft | 420 kts | 212° |
| 2026-04-28 17:43 | 37.38658 | -5.80583 | 36892 ft | 420 kts | 220° |
| 2026-04-28 17:44 | 37.34213 | -5.85340 | 36891 ft | 420 kts | 220° |
| 2026-04-28 17:44 | 37.29756 | -5.90078 | 36888 ft | 420 kts | 219° |
| 2026-04-28 17:45 | 37.25292 | -5.94811 | 36866 ft | 420 kts | 219° |
| 2026-04-28 17:45 | 37.20827 | -5.99545 | 36868 ft | 420 kts | 219° |
| 2026-04-28 17:46 | 37.16393 | -6.04236 | 36877 ft | 420 kts | 219° |
| 2026-04-28 17:46 | 37.11925 | -6.08951 | 36878 ft | 420 kts | 219° |
| 2026-04-28 17:47 | 37.07463 | -6.13664 | 36877 ft | 419 kts | 219° |
| 2026-04-28 17:47 | 37.03002 | -6.18366 | 36878 ft | 419 kts | 219° |
| 2026-04-28 17:48 | 36.98533 | -6.23054 | 36879 ft | 419 kts | 219° |
| 2026-04-28 17:48 | 36.94068 | -6.27745 | 36879 ft | 419 kts | 219° |
| 2026-04-28 17:49 | 36.89602 | -6.32428 | 36890 ft | 419 kts | 219° |
| 2026-04-28 17:49 | 36.85135 | -6.37099 | 36890 ft | 419 kts | 219° |
| 2026-04-28 17:50 | 36.80662 | -6.41765 | 36888 ft | 419 kts | 219° |
| 2026-04-28 17:50 | 36.76188 | -6.46431 | 36886 ft | 419 kts | 219° |
| 2026-04-28 17:51 | 36.71749 | -6.51055 | 36900 ft | 419 kts | 219° |
| 2026-04-28 17:51 | 36.67274 | -6.55714 | 36896 ft | 419 kts | 219° |
| 2026-04-28 17:52 | 36.62802 | -6.60355 | 36894 ft | 418 kts | 218° |
| 2026-04-28 17:52 | 36.56088 | -6.67312 | 36893 ft | 418 kts | 218° |
| 2026-04-28 17:53 | 36.51610 | -6.71945 | 36882 ft | 419 kts | 219° |
| 2026-04-28 17:53 | 36.47132 | -6.76578 | 36878 ft | 419 kts | 218° |
| 2026-04-28 17:54 | 36.42647 | -6.81198 | 36880 ft | 419 kts | 218° |
| 2026-04-28 17:54 | 36.38154 | -6.85821 | 36880 ft | 419 kts | 218° |
| 2026-04-28 17:55 | 36.33656 | -6.90434 | 36878 ft | 419 kts | 218° |
| 2026-04-28 17:55 | 36.29151 | -6.95044 | 36869 ft | 420 kts | 218° |
| 2026-04-28 17:56 | 36.24650 | -6.99661 | 36859 ft | 420 kts | 218° |
| 2026-04-28 17:56 | 36.20181 | -7.04247 | 36869 ft | 420 kts | 218° |
| 2026-04-28 17:57 | 36.15667 | -7.08862 | 36863 ft | 420 kts | 218° |
| 2026-04-28 17:57 | 36.11146 | -7.13468 | 36869 ft | 420 kts | 218° |
| 2026-04-28 17:58 | 36.06624 | -7.18062 | 36863 ft | 421 kts | 218° |
| 2026-04-28 17:58 | 36.02103 | -7.22654 | 36860 ft | 421 kts | 218° |
| 2026-04-28 17:59 | 35.97572 | -7.27254 | 36851 ft | 422 kts | 218° |
| 2026-04-28 17:59 | 35.93063 | -7.31827 | 36850 ft | 422 kts | 218° |
| 2026-04-28 18:00 | 35.88519 | -7.36427 | 36853 ft | 422 kts | 218° |
| 2026-04-28 18:00 | 35.83962 | -7.41028 | 36855 ft | 423 kts | 218° |
| 2026-04-28 18:01 | 35.79396 | -7.45602 | 36859 ft | 423 kts | 218° |
| 2026-04-28 18:01 | 35.74823 | -7.50158 | 36859 ft | 423 kts | 218° |
| 2026-04-28 18:02 | 35.70245 | -7.54719 | 36862 ft | 423 kts | 218° |
| 2026-04-28 18:02 | 35.65673 | -7.59282 | 36867 ft | 423 kts | 218° |
| 2026-04-28 18:03 | 35.61119 | -7.63796 | 36871 ft | 423 kts | 218° |
| 2026-04-28 18:03 | 35.56532 | -7.68345 | 36873 ft | 423 kts | 218° |
| 2026-04-28 18:04 | 35.51941 | -7.72890 | 36872 ft | 424 kts | 218° |
| 2026-04-28 18:04 | 35.47353 | -7.77434 | 36871 ft | 424 kts | 218° |
| 2026-04-28 18:05 | 35.43539 | -7.81202 | 36867 ft | 424 kts | 218° |
| 2026-04-28 18:05 | 35.38170 | -7.86514 | 36872 ft | 424 kts | 219° |
| 2026-04-28 18:06 | 35.33602 | -7.91093 | 36879 ft | 424 kts | 219° |
| 2026-04-28 18:06 | 35.29025 | -7.95677 | 36885 ft | 424 kts | 219° |
| 2026-04-28 18:07 | 35.24476 | -8.00215 | 36884 ft | 425 kts | 219° |
| 2026-04-28 18:07 | 35.19892 | -8.04776 | 36881 ft | 425 kts | 219° |
| 2026-04-28 18:08 | 35.15305 | -8.09342 | 36882 ft | 425 kts | 219° |
| 2026-04-28 18:08 | 35.10707 | -8.13906 | 36887 ft | 426 kts | 219° |
| 2026-04-28 18:09 | 35.06109 | -8.18465 | 36898 ft | 426 kts | 219° |
| 2026-04-28 18:09 | 35.01503 | -8.23011 | 36900 ft | 426 kts | 219° |
| 2026-04-28 18:10 | 34.97673 | -8.26784 | 36896 ft | 426 kts | 219° |
| 2026-04-28 18:10 | 34.93069 | -8.31332 | 36894 ft | 426 kts | 219° |
| 2026-04-28 18:11 | 34.88462 | -8.35880 | 36906 ft | 426 kts | 219° |
| 2026-04-28 18:11 | 34.83848 | -8.40429 | 36901 ft | 427 kts | 219° |
| 2026-04-28 18:12 | 34.79227 | -8.44966 | 36906 ft | 427 kts | 219° |
| 2026-04-28 18:12 | 34.74596 | -8.49499 | 36912 ft | 427 kts | 219° |
| 2026-04-28 18:13 | 34.69960 | -8.54032 | 36909 ft | 427 kts | 219° |
| 2026-04-28 18:13 | 34.65356 | -8.58535 | 36901 ft | 428 kts | 220° |
| 2026-04-28 18:14 | 34.60716 | -8.63068 | 36909 ft | 428 kts | 219° |
| 2026-04-28 18:14 | 34.56073 | -8.67589 | 36913 ft | 428 kts | 219° |
| 2026-04-28 18:15 | 34.51435 | -8.72121 | 36917 ft | 428 kts | 220° |
| 2026-04-28 18:15 | 34.46792 | -8.76643 | 36916 ft | 428 kts | 220° |
| 2026-04-28 18:16 | 34.42168 | -8.81131 | 36916 ft | 428 kts | 220° |
| 2026-04-28 18:16 | 34.37494 | -8.85610 | 36916 ft | 428 kts | 220° |
| 2026-04-28 18:17 | 34.32809 | -8.90089 | 36916 ft | 428 kts | 220° |
| 2026-04-28 18:17 | 34.28142 | -8.94570 | 36920 ft | 428 kts | 220° |
| 2026-04-28 18:18 | 34.23474 | -8.99048 | 36922 ft | 428 kts | 220° |
| 2026-04-28 18:18 | 34.19583 | -9.02757 | 36923 ft | 429 kts | 220° |
| 2026-04-28 18:19 | 34.14150 | -9.07950 | 36927 ft | 429 kts | 220° |
| 2026-04-28 18:19 | 34.09471 | -9.12415 | 36916 ft | 429 kts | 220° |
| 2026-04-28 18:20 | 34.04783 | -9.16878 | 36917 ft | 430 kts | 220° |
| 2026-04-28 18:20 | 34.00083 | -9.21351 | 36919 ft | 430 kts | 220° |
| 2026-04-28 18:21 | 33.95375 | -9.25819 | 36925 ft | 430 kts | 220° |
| 2026-04-28 18:21 | 33.90670 | -9.30284 | 36927 ft | 430 kts | 220° |
| 2026-04-28 18:22 | 33.85963 | -9.34750 | 36918 ft | 431 kts | 220° |
| 2026-04-28 18:22 | 33.81285 | -9.39173 | 36931 ft | 430 kts | 220° |
| 2026-04-28 18:23 | 33.76572 | -9.43614 | 36936 ft | 430 kts | 220° |
| 2026-04-28 18:23 | 33.71859 | -9.48057 | 36930 ft | 431 kts | 221° |
| 2026-04-28 18:24 | 33.67937 | -9.51756 | 36926 ft | 431 kts | 220° |
| 2026-04-28 18:24 | 33.62404 | -9.56952 | 36933 ft | 432 kts | 220° |
| 2026-04-28 18:25 | 33.57665 | -9.61400 | 36921 ft | 432 kts | 221° |
| 2026-04-28 18:26 | 33.50553 | -9.68062 | 36936 ft | 432 kts | 221° |
| 2026-04-28 18:26 | 33.45808 | -9.72499 | 36943 ft | 432 kts | 221° |
| 2026-04-28 18:27 | 33.41066 | -9.76931 | 36947 ft | 432 kts | 221° |
| 2026-04-28 18:27 | 33.36323 | -9.81361 | 36949 ft | 432 kts | 221° |
| 2026-04-28 18:28 | 33.31572 | -9.85781 | 36938 ft | 433 kts | 221° |
| 2026-04-28 18:28 | 33.26842 | -9.90175 | 36935 ft | 434 kts | 221° |
| 2026-04-28 18:29 | 33.22076 | -9.94596 | 36936 ft | 434 kts | 221° |
| 2026-04-28 18:29 | 33.17315 | -9.99021 | 36942 ft | 434 kts | 221° |
| 2026-04-28 18:30 | 33.12556 | -10.03448 | 36953 ft | 434 kts | 221° |
| 2026-04-28 18:30 | 33.07787 | -10.07864 | 36960 ft | 434 kts | 221° |
| 2026-04-28 18:31 | 33.03008 | -10.12263 | 36949 ft | 434 kts | 221° |
| 2026-04-28 18:31 | 32.98236 | -10.16666 | 36965 ft | 434 kts | 221° |
| 2026-04-28 18:32 | 32.93460 | -10.21061 | 36936 ft | 434 kts | 221° |
| 2026-04-28 18:32 | 32.88666 | -10.25445 | 36939 ft | 435 kts | 221° |
| 2026-04-28 18:33 | 32.83865 | -10.29843 | 36945 ft | 436 kts | 221° |
| 2026-04-28 18:33 | 32.79055 | -10.34242 | 36944 ft | 436 kts | 221° |
| 2026-04-28 18:34 | 32.74247 | -10.38655 | 36956 ft | 436 kts | 221° |
| 2026-04-28 18:34 | 32.69435 | -10.43055 | 36952 ft | 437 kts | 222° |
| 2026-04-28 18:35 | 32.64618 | -10.47449 | 36962 ft | 437 kts | 221° |
| 2026-04-28 18:35 | 32.59798 | -10.51829 | 36966 ft | 436 kts | 221° |
| 2026-04-28 18:36 | 32.54978 | -10.56212 | 36969 ft | 436 kts | 222° |
| 2026-04-28 18:36 | 32.50187 | -10.60565 | 36957 ft | 437 kts | 222° |
| 2026-04-28 18:37 | 32.45362 | -10.64954 | 36956 ft | 437 kts | 222° |
| 2026-04-28 18:37 | 32.40525 | -10.69334 | 36948 ft | 437 kts | 222° |
| 2026-04-28 18:38 | 32.35692 | -10.73699 | 36965 ft | 437 kts | 222° |
| 2026-04-28 18:38 | 32.30862 | -10.78065 | 36973 ft | 437 kts | 222° |
| 2026-04-28 18:39 | 32.26034 | -10.82422 | 36979 ft | 437 kts | 222° |
| 2026-04-28 18:39 | 32.21232 | -10.86751 | 36979 ft | 437 kts | 222° |
| 2026-04-28 18:40 | 32.16403 | -10.91099 | 36985 ft | 436 kts | 222° |
| 2026-04-28 18:40 | 32.11574 | -10.95436 | 36958 ft | 436 kts | 222° |
| 2026-04-28 18:41 | 32.06738 | -10.99775 | 36965 ft | 436 kts | 222° |
| 2026-04-28 18:41 | 32.01907 | -11.04095 | 36978 ft | 436 kts | 222° |
| 2026-04-28 18:42 | 31.97066 | -11.08418 | 36982 ft | 436 kts | 222° |
| 2026-04-28 18:42 | 31.92238 | -11.12734 | 36984 ft | 436 kts | 222° |
| 2026-04-28 18:43 | 31.87405 | -11.17049 | 36991 ft | 436 kts | 222° |
| 2026-04-28 18:43 | 31.82569 | -11.21352 | 36977 ft | 435 kts | 222° |
| 2026-04-28 18:44 | 31.77771 | -11.25616 | 36986 ft | 435 kts | 222° |
| 2026-04-28 18:44 | 31.70536 | -11.32056 | 36932 ft | 435 kts | 222° |
| 2026-04-28 18:45 | 31.65690 | -11.36394 | 36974 ft | 439 kts | 222° |
| 2026-04-28 18:45 | 31.60817 | -11.40738 | 36990 ft | 439 kts | 222° |
| 2026-04-28 18:46 | 31.55937 | -11.45069 | 36986 ft | 439 kts | 222° |
| 2026-04-28 18:46 | 31.51069 | -11.49394 | 36986 ft | 439 kts | 222° |
| 2026-04-28 18:47 | 31.46203 | -11.53707 | 36993 ft | 438 kts | 222° |
| 2026-04-28 18:47 | 31.41337 | -11.57999 | 36997 ft | 438 kts | 222° |
| 2026-04-28 18:48 | 31.36465 | -11.62285 | 36998 ft | 438 kts | 222° |
| 2026-04-28 18:48 | 31.31612 | -11.66579 | 36994 ft | 438 kts | 222° |
| 2026-04-28 18:49 | 31.28396 | -11.69426 | 36994 ft | 437 kts | 222° |
| 2026-04-28 18:49 | 31.21907 | -11.75164 | 36986 ft | 437 kts | 222° |
| 2026-04-28 18:50 | 31.17083 | -11.79407 | 36997 ft | 436 kts | 222° |
| 2026-04-28 18:50 | 31.12232 | -11.83658 | 37000 ft | 436 kts | 222° |
| 2026-04-28 18:51 | 31.07377 | -11.87904 | 37000 ft | 436 kts | 222° |
| 2026-04-28 18:51 | 31.02529 | -11.92148 | 37005 ft | 435 kts | 222° |
| 2026-04-28 18:52 | 30.97690 | -11.96389 | 37002 ft | 435 kts | 222° |
| 2026-04-28 18:52 | 30.92849 | -12.00631 | 36993 ft | 435 kts | 222° |
| 2026-04-28 18:53 | 30.88008 | -12.04855 | 36986 ft | 434 kts | 222° |
| 2026-04-28 18:53 | 30.83166 | -12.09062 | 36992 ft | 434 kts | 221° |
| 2026-04-28 18:54 | 30.78320 | -12.13272 | 36997 ft | 434 kts | 222° |
| 2026-04-28 18:54 | 30.73510 | -12.17457 | 36994 ft | 434 kts | 222° |
| 2026-04-28 18:55 | 30.69460 | -12.20985 | 37006 ft | 434 kts | 222° |
| 2026-04-28 18:55 | 30.63831 | -12.25863 | 36994 ft | 434 kts | 221° |
| 2026-04-28 18:56 | 30.58993 | -12.30047 | 37007 ft | 433 kts | 221° |
| 2026-04-28 18:56 | 30.54163 | -12.34227 | 37015 ft | 432 kts | 221° |
| 2026-04-28 18:57 | 30.49338 | -12.38396 | 37018 ft | 432 kts | 221° |
| 2026-04-28 18:57 | 30.44509 | -12.42544 | 36997 ft | 432 kts | 221° |
| 2026-04-28 18:58 | 30.40490 | -12.45989 | 37001 ft | 432 kts | 221° |
| 2026-04-28 18:58 | 30.35655 | -12.50137 | 37007 ft | 432 kts | 221° |
| 2026-04-28 18:59 | 30.30829 | -12.54281 | 37009 ft | 431 kts | 221° |
| 2026-04-28 18:59 | 30.26005 | -12.58412 | 37018 ft | 431 kts | 221° |
| 2026-04-28 19:00 | 30.21185 | -12.62530 | 37020 ft | 431 kts | 221° |
| 2026-04-28 19:00 | 30.16364 | -12.66643 | 37021 ft | 430 kts | 221° |
| 2026-04-28 19:01 | 30.11545 | -12.70749 | 37022 ft | 430 kts | 221° |
| 2026-04-28 19:01 | 30.06732 | -12.74854 | 37021 ft | 430 kts | 221° |
| 2026-04-28 19:02 | 30.01924 | -12.78967 | 37010 ft | 430 kts | 221° |
| 2026-04-28 19:02 | 29.97145 | -12.83054 | 37013 ft | 430 kts | 221° |
| 2026-04-28 19:03 | 29.92330 | -12.87156 | 37016 ft | 430 kts | 221° |
| 2026-04-28 19:03 | 29.87512 | -12.91250 | 37018 ft | 430 kts | 221° |
| 2026-04-28 19:04 | 29.82693 | -12.95353 | 37022 ft | 430 kts | 221° |
| 2026-04-28 19:04 | 29.77876 | -12.99453 | 37023 ft | 430 kts | 221° |
| 2026-04-28 19:05 | 29.73059 | -13.03546 | 37014 ft | 430 kts | 221° |
| 2026-04-28 19:05 | 29.68239 | -13.07621 | 37033 ft | 430 kts | 220° |
| 2026-04-28 19:06 | 29.64238 | -13.11008 | 37034 ft | 430 kts | 221° |
| 2026-04-28 19:06 | 29.58638 | -13.15744 | 37027 ft | 429 kts | 220° |
| 2026-04-28 19:07 | 29.53821 | -13.19813 | 37031 ft | 429 kts | 220° |
| 2026-04-28 19:07 | 29.49008 | -13.23874 | 37037 ft | 429 kts | 220° |
| 2026-04-28 19:08 | 29.44193 | -13.27928 | 37022 ft | 429 kts | 220° |
| 2026-04-28 19:08 | 29.39379 | -13.31974 | 37031 ft | 428 kts | 220° |
| 2026-04-28 19:09 | 29.34573 | -13.36008 | 37034 ft | 428 kts | 220° |
| 2026-04-28 19:09 | 29.29766 | -13.40031 | 37034 ft | 428 kts | 220° |
| 2026-04-28 19:10 | 29.24993 | -13.44028 | 37031 ft | 427 kts | 220° |
| 2026-04-28 19:10 | 29.20192 | -13.48059 | 37028 ft | 427 kts | 220° |
| 2026-04-28 19:11 | 29.15419 | -13.52107 | 37018 ft | 426 kts | 222° |
| 2026-04-28 19:11 | 29.10896 | -13.56474 | 37008 ft | 425 kts | 225° |
| 2026-04-28 19:12 | 29.06504 | -13.60991 | 37012 ft | 424 kts | 225° |
| 2026-04-28 19:12 | 29.02077 | -13.65460 | 37015 ft | 425 kts | 224° |
| 2026-04-28 19:13 | 28.97594 | -13.69870 | 37021 ft | 425 kts | 224° |
| 2026-04-28 19:13 | 28.93095 | -13.74272 | 37023 ft | 425 kts | 224° |
| 2026-04-28 19:14 | 28.88637 | -13.78653 | 37027 ft | 425 kts | 224° |
| 2026-04-28 19:14 | 28.84150 | -13.83071 | 37032 ft | 426 kts | 224° |
| 2026-04-28 19:15 | 28.79658 | -13.87477 | 36884 ft | 427 kts | 224° |
| 2026-04-28 19:15 | 28.77399 | -13.89690 | 36620 ft | 428 kts | 224° |
| 2026-04-28 19:15 | 28.75902 | -13.91156 | 36450 ft | 428 kts | 224° |
| 2026-04-28 19:16 | 28.72879 | -13.94118 | 36108 ft | 429 kts | 224° |
| 2026-04-28 19:16 | 28.70609 | -13.96341 | 35857 ft | 430 kts | 224° |
| 2026-04-28 19:16 | 28.68338 | -13.98566 | 35608 ft | 431 kts | 224° |
| 2026-04-28 19:16 | 28.66060 | -14.00795 | 35363 ft | 432 kts | 224° |
| 2026-04-28 19:17 | 28.63778 | -14.03025 | 34925 ft | 434 kts | 223° |
| 2026-04-28 19:17 | 28.61477 | -14.05272 | 34248 ft | 434 kts | 223° |
| 2026-04-28 19:17 | 28.59196 | -14.07497 | 33711 ft | 430 kts | 223° |
| 2026-04-28 19:17 | 28.56931 | -14.09701 | 33165 ft | 426 kts | 223° |
| 2026-04-28 19:18 | 28.54694 | -14.11877 | 32622 ft | 422 kts | 223° |
| 2026-04-28 19:18 | 28.52504 | -14.14010 | 32089 ft | 418 kts | 223° |
| 2026-04-28 19:18 | 28.50302 | -14.16154 | 31551 ft | 415 kts | 224° |
| 2026-04-28 19:18 | 28.48121 | -14.18281 | 31025 ft | 411 kts | 223° |
| 2026-04-28 19:19 | 28.45959 | -14.20387 | 30508 ft | 408 kts | 223° |
| 2026-04-28 19:19 | 28.43807 | -14.22481 | 29979 ft | 405 kts | 223° |
| 2026-04-28 19:19 | 28.41677 | -14.24548 | 29434 ft | 401 kts | 223° |
| 2026-04-28 19:19 | 28.39562 | -14.26599 | 28925 ft | 397 kts | 223° |
| 2026-04-28 19:20 | 28.37475 | -14.28622 | 28433 ft | 393 kts | 223° |
| 2026-04-28 19:20 | 28.35403 | -14.30631 | 27944 ft | 390 kts | 223° |
| 2026-04-28 19:20 | 28.33350 | -14.32619 | 27472 ft | 386 kts | 223° |
| 2026-04-28 19:20 | 28.31312 | -14.34594 | 27008 ft | 384 kts | 223° |
| 2026-04-28 19:21 | 28.29286 | -14.36555 | 26547 ft | 381 kts | 223° |
| 2026-04-28 19:21 | 28.27277 | -14.38497 | 26102 ft | 378 kts | 223° |
| 2026-04-28 19:21 | 28.25283 | -14.40423 | 25652 ft | 376 kts | 223° |
| 2026-04-28 19:21 | 28.23299 | -14.42341 | 25193 ft | 374 kts | 223° |
| 2026-04-28 19:22 | 28.21329 | -14.44245 | 24736 ft | 372 kts | 223° |
| 2026-04-28 19:22 | 28.20029 | -14.45502 | 24431 ft | 371 kts | 223° |
| 2026-04-28 19:22 | 28.17407 | -14.48037 | 23789 ft | 369 kts | 223° |
| 2026-04-28 19:22 | 28.15458 | -14.49921 | 23265 ft | 368 kts | 223° |
| 2026-04-28 19:23 | 28.13514 | -14.51795 | 22784 ft | 366 kts | 223° |
| 2026-04-28 19:23 | 28.11584 | -14.53654 | 22302 ft | 363 kts | 223° |
| 2026-04-28 19:23 | 28.09663 | -14.55504 | 21824 ft | 361 kts | 223° |
| 2026-04-28 19:23 | 28.07751 | -14.57343 | 21351 ft | 359 kts | 223° |
| 2026-04-28 19:24 | 28.05849 | -14.59171 | 20880 ft | 358 kts | 223° |
| 2026-04-28 19:24 | 28.03954 | -14.60992 | 20411 ft | 356 kts | 223° |
| 2026-04-28 19:24 | 28.02089 | -14.62782 | 19948 ft | 355 kts | 223° |
| 2026-04-28 19:24 | 28.00212 | -14.64591 | 19476 ft | 354 kts | 224° |
| 2026-04-28 19:25 | 27.98491 | -14.66564 | 19027 ft | 351 kts | 229° |
| 2026-04-28 19:25 | 27.96806 | -14.68564 | 18568 ft | 351 kts | 229° |
| 2026-04-28 19:25 | 27.95124 | -14.70560 | 18076 ft | 350 kts | 229° |
| 2026-04-28 19:25 | 27.93451 | -14.72546 | 17614 ft | 347 kts | 229° |
| 2026-04-28 19:26 | 27.91787 | -14.74517 | 17170 ft | 345 kts | 228° |
| 2026-04-28 19:26 | 27.90132 | -14.76468 | 16723 ft | 342 kts | 228° |
| 2026-04-28 19:26 | 27.88490 | -14.78403 | 16298 ft | 340 kts | 228° |
| 2026-04-28 19:26 | 27.86857 | -14.80327 | 15864 ft | 339 kts | 228° |
| 2026-04-28 19:27 | 27.85228 | -14.82242 | 15440 ft | 337 kts | 228° |
| 2026-04-28 19:27 | 27.83610 | -14.84146 | 15021 ft | 335 kts | 228° |
| 2026-04-28 19:27 | 27.81999 | -14.86044 | 14601 ft | 333 kts | 229° |
| 2026-04-28 19:27 | 27.80400 | -14.87932 | 14183 ft | 332 kts | 227° |
| 2026-04-28 19:28 | 27.78809 | -14.89807 | 13753 ft | 330 kts | 227° |
| 2026-04-28 19:28 | 27.77222 | -14.91677 | 13301 ft | 328 kts | 228° |
| 2026-04-28 19:28 | 27.75649 | -14.93529 | 12878 ft | 325 kts | 228° |
| 2026-04-28 19:28 | 27.74102 | -14.95347 | 12656 ft | 316 kts | 228° |
| 2026-04-28 19:29 | 27.72626 | -14.97078 | 12521 ft | 305 kts | 228° |
| 2026-04-28 19:29 | 27.71644 | -14.98229 | 12441 ft | 297 kts | 228° |
| 2026-04-28 19:29 | 27.69854 | -15.00467 | 12273 ft | 283 kts | 237° |
| 2026-04-28 19:29 | 27.68935 | -15.02372 | 12149 ft | 272 kts | 245° |
| 2026-04-28 19:30 | 27.68118 | -15.04254 | 12016 ft | 263 kts | 246° |
| 2026-04-28 19:30 | 27.67313 | -15.06099 | 11745 ft | 260 kts | 245° |
| 2026-04-28 19:30 | 27.66512 | -15.07932 | 11447 ft | 259 kts | 245° |
| 2026-04-28 19:30 | 27.65719 | -15.09750 | 11030 ft | 257 kts | 245° |
| 2026-04-28 19:31 | 27.64931 | -15.11553 | 10485 ft | 256 kts | 246° |
| 2026-04-28 19:31 | 27.64194 | -15.13369 | 9945 ft | 253 kts | 255° |
| 2026-04-28 19:31 | 27.63919 | -15.15297 | 9374 ft | 247 kts | 273° |
| 2026-04-28 19:31 | 27.64197 | -15.17178 | 8902 ft | 241 kts | 290° |
| 2026-04-28 19:32 | 27.64815 | -15.18938 | 8513 ft | 241 kts | 293° |
| 2026-04-28 19:32 | 27.65434 | -15.20693 | 8148 ft | 241 kts | 293° |
| 2026-04-28 19:32 | 27.66050 | -15.22448 | 7788 ft | 240 kts | 293° |
| 2026-04-28 19:32 | 27.66661 | -15.24197 | 7427 ft | 240 kts | 294° |
| 2026-04-28 19:33 | 27.67272 | -15.25948 | 7065 ft | 240 kts | 294° |
| 2026-04-28 19:33 | 27.67887 | -15.27700 | 6703 ft | 240 kts | 294° |
| 2026-04-28 19:33 | 27.68504 | -15.29452 | 6353 ft | 240 kts | 294° |
| 2026-04-28 19:33 | 27.69119 | -15.31204 | 5987 ft | 240 kts | 294° |
| 2026-04-28 19:34 | 27.69729 | -15.32951 | 5637 ft | 239 kts | 294° |
| 2026-04-28 19:34 | 27.70335 | -15.34691 | 5291 ft | 237 kts | 293° |
| 2026-04-28 19:34 | 27.70932 | -15.36404 | 4944 ft | 237 kts | 293° |
| 2026-04-28 19:34 | 27.71535 | -15.38130 | 4586 ft | 236 kts | 293° |
| 2026-04-28 19:35 | 27.72135 | -15.39848 | 4234 ft | 235 kts | 292° |
| 2026-04-28 19:35 | 27.72741 | -15.41547 | 3875 ft | 230 kts | 297° |
| 2026-04-28 19:35 | 27.73675 | -15.42964 | 3546 ft | 224 kts | 318° |
| 2026-04-28 19:35 | 27.74988 | -15.43884 | 3257 ft | 218 kts | 335° |
| 2026-04-28 19:36 | 27.76303 | -15.44558 | 3200 ft | 198 kts | 334° |
| 2026-04-28 19:36 | 27.77582 | -15.45033 | 3033 ft | 192 kts | 352° |
| 2026-04-28 19:36 | 27.78894 | -15.44942 | 2784 ft | 188 kts | 13° |
| 2026-04-28 19:36 | 27.80101 | -15.44434 | 2549 ft | 183 kts | 18° |
| 2026-04-28 19:37 | 27.81267 | -15.43921 | 2312 ft | 177 kts | 20° |
| 2026-04-28 19:37 | 27.82015 | -15.43591 | 2149 ft | 171 kts | 19° |
| 2026-04-28 19:37 | 27.83471 | -15.42949 | 1853 ft | 164 kts | 20° |
| 2026-04-28 19:37 | 27.84511 | -15.42490 | 1641 ft | 156 kts | 19° |
| 2026-04-28 19:38 | 27.85486 | -15.42060 | 1434 ft | 146 kts | 20° |
| 2026-04-28 19:38 | 27.86390 | -15.41661 | 1259 ft | 132 kts | 20° |
| 2026-04-28 19:38 | 27.87253 | -15.41281 | 1080 ft | 132 kts | 21° |
| 2026-04-28 19:38 | 27.88092 | -15.40910 | 920 ft | 131 kts | 21° |
| 2026-04-28 19:39 | 27.88931 | -15.40538 | 732 ft | 128 kts | 21° |
| 2026-04-28 19:39 | 27.89761 | -15.40159 | 537 ft | 127 kts | 19° |
| 2026-04-28 19:39 | 27.90570 | -15.39813 | 391 ft | 125 kts | 20° |
| 2026-04-28 19:39 | 27.91374 | -15.39458 | 234 ft | 123 kts | 20° |
| 2026-04-28 19:40 | 27.92169 | -15.39108 | 96 ft | 118 kts | 20° |
| 2026-04-28 19:40 | 27.92847 | -15.38810 | 60 ft | 86 kts | 22° |
| 2026-04-28 19:40 | 27.93250 | -15.38628 | 56 ft | 44 kts | 20° |
| 2026-04-28 19:40 | 27.93502 | -15.38520 | 60 ft | 34 kts | 21° |
| 2026-04-28 19:41 | 27.93692 | -15.38441 | 58 ft | 26 kts | 16° |
| 2026-04-28 19:41 | 27.93855 | -15.38427 | 61 ft | 19 kts | 356° |
| 2026-04-28 19:41 | 27.93971 | -15.38444 | 70 ft | 14 kts | 352° |
| 2026-04-28 19:41 | 27.94031 | -15.38469 | 65 ft | 10 kts | 321° |
| 2026-04-28 19:42 | 27.94059 | -15.38532 | 72 ft | 7 kts | 294° |
| 2026-04-28 19:42 | 27.94076 | -15.38590 | 74 ft | 9 kts | 274° |
| 2026-04-28 19:42 | 27.94044 | -15.38638 | 82 ft | 9 kts | 207° |
| 2026-04-28 19:42 | 27.94009 | -15.38653 | 86 ft | 7 kts | 201° |
| 2026-04-28 19:43 | 27.93960 | -15.38675 | 85 ft | 5 kts | 201° |
| 2026-04-28 19:43 | 27.93920 | -15.38693 | 85 ft | 16 kts | 201° |
| 2026-04-28 19:43 | 27.93835 | -15.38730 | 84 ft | 12 kts | 201° |
| 2026-04-28 19:43 | 27.93766 | -15.38761 | 83 ft | 9 kts | 201° |
| 2026-04-28 19:44 | 27.93755 | -15.38805 | 84 ft | 5 kts | 284° |
| 2026-04-28 19:44 | 27.93764 | -15.38831 | 84 ft | 2 kts | 294° |
| 2026-04-28 19:44 | 27.93768 | -15.38840 | 87 ft | 1 kts | 292° |
| 2026-04-28 19:44 | 27.93770 | -15.38848 | 86 ft | 2 kts | 292° |
| 2026-04-28 19:45 | 27.93773 | -15.38855 | 88 ft | 0 kts | 291° |